This is the latest recevied weather packets stored in our database for station/object GW1699. If no packets are shown the sender has not sent any weather packets the latest 10 day(s).
| Time | Temp. | Humidity | Pressure | Rain* | Wind** | Luminosity | Snow |
|---|---|---|---|---|---|---|---|
| 1777933996 | 20° C | 66% | 1008.4 hPa | 0 mm | - | - | - |
| 1777932196 | 20.56° C | 57% | 1008.4 hPa | 0 mm | - | - | - |
| 1777929328 | 22.22° C | 51% | 1008.1 hPa | 0 mm | - | - | - |
| 1777928990 | 22.22° C | 49% | 1008.4 hPa | 0 mm | - | - | - |
| 1777927172 | 19.44° C | 74% | 1008.4 hPa | 0 mm | - | - | - |
| 1777925741 | 21.11° C | 55% | 1008.8 hPa | 0 mm | - | - | - |
| 1777923577 | 21.11° C | 48% | 1008.8 hPa | 0 mm | - | - | - |
| 1777922842 | 21.67° C | 48% | 1008.8 hPa | 0 mm | - | - | - |
| 1777921789 | 22.22° C | 47% | 1008.8 hPa | 0 mm | - | - | - |
| 1777921054 | 22.22° C | 48% | 1008.8 hPa | 0 mm | - | - | - |
| 1777920335 | 21.11° C | 49% | 1009.1 hPa | 0 mm | - | - | - |
| 1777917800 | 20.56° C | 53% | 1009.4 hPa | 0 mm | - | - | - |
| 1777917468 | 20° C | 53% | 1009.4 hPa | 0 mm | - | - | - |
| 1777915633 | 19.44° C | 54% | 1010.1 hPa | 0 mm | - | - | - |
| 1777913498 | 17.78° C | 58% | 1010.8 hPa | 0 mm | - | - | - |
| 1777911690 | 18.89° C | 58% | 1011.1 hPa | 0 mm | - | - | - |
| 1777911312 | 18.33° C | 56% | 1011.1 hPa | 0 mm | - | - | - |
| 1777910082 | 17.78° C | 58% | 1011.8 hPa | 0 mm | - | - | - |
| 1777908269 | 17.78° C | 54% | 1011.8 hPa | 0 mm | - | - | - |
| 1777907533 | 17.78° C | 52% | 1011.8 hPa | 0 mm | - | - | - |
| 1777906483 | 17.22° C | 57% | 1012.1 hPa | 0 mm | - | - | - |
| 1777903613 | 16.67° C | 53% | 1011.8 hPa | 0 mm | - | - | - |
| 1777902871 | 16.11° C | 55% | 1012.1 hPa | 0 mm | - | - | - |
| 1777902164 | 16.11° C | 54% | 1012.1 hPa | 0 mm | - | - | - |
| 1777898905 | 13.89° C | 61% | 1011.8 hPa | 0 mm | - | - | - |
* Rain since midnight (hover to see other rain measurements)
** Current wind speed in m/s (hover to see current wind gust speed)